Time;durP1;ratioP1;P1;durP2;ratioP2;P2;SDS_P1;SDS_P2;PMS_P1;PMS_P2;Temp;Humidity;BMP_temperature;BMP_pressure;BME280_temperature;BME280_humidity;BME280_pressure;Samples;Min_cycle;Max_cycle;Signal;HPM_P1;HPM_P2
2021/09/09 00:01:41;;;;;;;17.53;12.17;;;17.70;99.90;;;;;;5042914;28;20508;-79
2021/09/09 00:04:07;;;;;;;15.37;11.20;;;17.70;99.90;;;;;;5041955;28;20345;-80
2021/09/09 00:06:33;;;;;;;16.33;11.93;;;17.60;99.90;;;;;;5023495;28;20276;-78
2021/09/09 00:08:58;;;;;;;15.40;10.83;;;17.60;99.90;;;;;;5040746;28;20208;-79
2021/09/09 00:11:24;;;;;;;17.97;12.37;;;17.60;99.90;;;;;;5023934;28;20216;-78
2021/09/09 00:13:49;;;;;;;17.87;11.90;;;17.60;99.90;;;;;;5021747;28;20211;-78
2021/09/09 00:16:15;;;;;;;14.57;11.57;;;17.60;99.90;;;;;;5037201;28;20200;-78
2021/09/09 00:18:41;;;;;;;17.10;11.90;;;17.60;99.90;;;;;;5037689;28;20310;-77
2021/09/09 00:21:06;;;;;;;17.63;11.00;;;17.60;99.90;;;;;;5039588;28;20234;-79
2021/09/09 00:23:34;;;;;;;15.87;12.13;;;17.60;99.90;;;;;;5036974;28;20216;-79
2021/09/09 00:26:03;;;;;;;15.90;11.93;;;17.60;99.90;;;;;;5039581;28;20278;-79
2021/09/09 00:28:29;;;;;;;18.03;11.90;;;17.60;99.90;;;;;;5040665;28;20413;-77
2021/09/09 00:30:55;;;;;;;16.17;11.80;;;17.60;99.90;;;;;;5040903;28;20534;-79
2021/09/09 00:33:20;;;;;;;17.20;11.47;;;17.50;99.90;;;;;;5024887;28;20184;-81
2021/09/09 00:35:46;;;;;;;15.93;11.20;;;17.50;99.90;;;;;;5042155;28;20544;-79
2021/09/09 00:38:12;;;;;;;16.10;11.07;;;17.50;99.90;;;;;;5041069;28;20178;-79
2021/09/09 00:40:38;;;;;;;17.83;11.60;;;17.40;99.90;;;;;;5042944;28;20202;-78
2021/09/09 00:43:04;;;;;;;20.57;13.50;;;17.40;99.90;;;;;;5042106;28;20205;-79
2021/09/09 00:45:29;;;;;;;16.63;11.70;;;17.30;99.90;;;;;;5040889;28;20441;-78
2021/09/09 00:47:57;;;;;;;15.70;11.43;;;17.30;99.90;;;;;;5039544;28;20183;-80
2021/09/09 00:50:26;;;;;;;14.00;10.70;;;17.40;99.90;;;;;;5041710;28;20220;-79
2021/09/09 00:52:52;;;;;;;15.77;10.80;;;17.40;99.90;;;;;;5040826;28;20406;-78
2021/09/09 00:55:18;;;;;;;14.67;10.77;;;17.30;99.90;;;;;;5041023;28;20441;-78
2021/09/09 00:57:46;;;;;;;16.53;11.70;;;17.30;99.90;;;;;;5039069;28;20461;-79
2021/09/09 01:00:12;;;;;;;16.87;11.47;;;17.30;99.90;;;;;;5023210;28;20515;-79
2021/09/09 01:02:39;;;;;;;19.50;11.70;;;17.20;99.90;;;;;;5038744;28;20413;-79
2021/09/09 01:05:09;;;;;;;17.73;11.27;;;17.00;99.90;;;;;;5039589;28;20473;-78
2021/09/09 01:07:34;;;;;;;14.50;10.53;;;17.00;99.90;;;;;;5038491;28;20999;-79
2021/09/09 01:10:00;;;;;;;17.67;11.90;;;16.90;99.90;;;;;;5041123;28;20469;-79
2021/09/09 01:12:26;;;;;;;20.70;11.37;;;16.70;99.90;;;;;;5039762;28;20202;-79
2021/09/09 01:14:52;;;;;;;18.13;11.70;;;16.60;99.90;;;;;;5040645;28;20306;-80
2021/09/09 01:17:18;;;;;;;17.87;11.70;;;16.50;99.90;;;;;;5044334;28;20420;-79
2021/09/09 01:19:44;;;;;;;18.43;12.30;;;16.60;99.90;;;;;;5045126;28;20866;-81
2021/09/09 01:22:09;;;;;;;18.57;11.70;;;16.70;99.90;;;;;;5044276;28;20551;-80
2021/09/09 01:24:35;;;;;;;18.53;12.17;;;16.80;99.90;;;;;;5043789;28;20209;-77
2021/09/09 01:27:06;;;;;;;16.13;11.30;;;16.90;99.90;;;;;;5043809;28;20178;-78
2021/09/09 01:29:34;;;;;;;17.10;12.20;;;16.70;99.90;;;;;;5043300;28;20166;-79
2021/09/09 01:32:00;;;;;;;14.17;10.87;;;16.80;99.90;;;;;;5042759;28;20416;-79
2021/09/09 01:34:26;;;;;;;21.33;14.70;;;16.80;99.90;;;;;;5042833;28;20457;-80
2021/09/09 01:36:53;;;;;;;19.70;12.40;;;16.70;99.90;;;;;;5044380;28;20473;-79
2021/09/09 01:39:19;;;;;;;16.23;11.50;;;16.60;99.90;;;;;;5043587;28;20427;-78
2021/09/09 01:41:49;;;;;;;14.70;11.10;;;16.50;99.90;;;;;;5027342;28;20487;-79
2021/09/09 01:44:15;;;;;;;20.57;12.97;;;16.40;99.90;;;;;;5043182;28;21049;-78
2021/09/09 01:46:40;;;;;;;16.30;12.87;;;16.60;99.90;;;;;;5040947;28;20420;-79
2021/09/09 01:49:06;;;;;;;18.87;11.30;;;16.70;99.90;;;;;;5043582;28;20611;-79
2021/09/09 01:51:31;;;;;;;14.63;10.60;;;16.70;99.90;;;;;;5044115;28;20177;-78
2021/09/09 01:53:57;;;;;;;18.60;12.10;;;16.80;99.90;;;;;;5041607;28;20174;-78
2021/09/09 01:56:23;;;;;;;20.50;12.73;;;16.80;99.90;;;;;;5041487;28;20572;-81
2021/09/09 01:58:49;;;;;;;19.50;13.53;;;16.80;99.90;;;;;;5042164;28;20173;-78
2021/09/09 02:01:16;;;;;;;16.20;10.70;;;16.80;99.90;;;;;;5042098;28;20177;-78
2021/09/09 02:03:41;;;;;;;14.60;11.30;;;16.90;99.90;;;;;;5038155;28;20486;-78
2021/09/09 02:06:07;;;;;;;16.17;11.63;;;16.80;99.90;;;;;;5052926;28;20447;-79
2021/09/09 02:08:32;;;;;;;16.80;12.10;;;16.80;99.90;;;;;;5026356;28;20201;-80
2021/09/09 02:10:58;;;;;;;14.00;11.70;;;16.80;99.90;;;;;;5042515;28;20177;-81
2021/09/09 02:13:23;;;;;;;21.10;11.30;;;16.80;99.90;;;;;;5041081;28;20174;-78
2021/09/09 02:15:49;;;;;;;13.57;10.17;;;16.80;99.90;;;;;;5028200;28;20197;-80
2021/09/09 02:18:14;;;;;;;16.23;10.50;;;16.80;99.90;;;;;;5045027;28;20281;-78
2021/09/09 02:20:40;;;;;;;15.60;11.40;;;16.70;99.90;;;;;;5045101;28;20174;-79
2021/09/09 02:23:06;;;;;;;17.03;10.40;;;16.70;99.90;;;;;;5044244;28;20177;-78
2021/09/09 02:25:34;;;;;;;24.07;11.40;;;16.70;99.90;;;;;;5044485;28;20200;-79
2021/09/09 02:28:00;;;;;;;14.80;11.43;;;16.70;99.90;;;;;;5044967;28;20276;-79
2021/09/09 02:30:26;;;;;;;18.90;12.20;;;16.80;99.90;;;;;;5045027;28;20409;-78
2021/09/09 02:32:52;;;;;;;19.43;11.60;;;16.70;99.90;;;;;;5044668;28;20235;-79
2021/09/09 02:35:18;;;;;;;14.97;10.93;;;16.70;99.90;;;;;;5042745;28;20436;-78
2021/09/09 02:37:43;;;;;;;14.60;10.60;;;16.70;99.90;;;;;;5027265;28;20421;-77
2021/09/09 02:40:11;;;;;;;18.73;11.90;;;16.70;99.90;;;;;;5044744;28;20173;-78
2021/09/09 02:42:36;;;;;;;16.40;11.30;;;16.60;99.90;;;;;;5026623;28;20197;-77
2021/09/09 02:45:02;;;;;;;15.00;10.30;;;16.70;99.90;;;;;;5039052;28;20459;-77
2021/09/09 02:47:28;;;;;;;16.87;11.43;;;16.60;99.90;;;;;;5020969;28;20187;-78
2021/09/09 02:49:54;;;;;;;16.20;11.60;;;16.50;99.90;;;;;;5037276;28;20499;-79
2021/09/09 02:52:19;;;;;;;19.50;11.77;;;16.50;99.90;;;;;;5040191;28;20162;-79
2021/09/09 02:54:45;;;;;;;16.30;10.80;;;16.50;99.90;;;;;;5027148;28;20201;-79
2021/09/09 02:57:10;;;;;;;14.67;11.30;;;16.50;99.90;;;;;;5026668;28;20244;-78
2021/09/09 02:59:36;;;;;;;13.70;10.10;;;16.40;99.90;;;;;;5044638;28;20649;-79
2021/09/09 03:02:03;;;;;;;16.43;11.37;;;16.30;99.90;;;;;;5044063;28;20241;-79
2021/09/09 03:04:29;;;;;;;16.67;12.03;;;16.30;99.90;;;;;;5027121;28;20221;-79
2021/09/09 03:06:55;;;;;;;15.00;10.17;;;16.30;99.90;;;;;;5044590;28;20422;-79
2021/09/09 03:09:21;;;;;;;14.93;10.90;;;16.30;99.90;;;;;;5044112;28;20432;-78
2021/09/09 03:11:46;;;;;;;14.73;9.80;;;16.30;99.90;;;;;;5027452;28;20545;-79
2021/09/09 03:14:12;;;;;;;16.13;11.50;;;16.20;99.90;;;;;;5044728;28;20197;-79
2021/09/09 03:16:37;;;;;;;15.83;10.97;;;16.10;99.90;;;;;;5044325;28;20185;-79
2021/09/09 03:19:03;;;;;;;13.30;10.23;;;16.10;99.90;;;;;;5026305;28;20184;-78
2021/09/09 03:21:28;;;;;;;13.57;10.13;;;16.20;99.90;;;;;;5026821;28;20655;-79
2021/09/09 03:23:54;;;;;;;16.37;10.20;;;16.20;99.90;;;;;;5044475;28;20209;-79
2021/09/09 03:26:19;;;;;;;15.80;10.87;;;16.20;99.90;;;;;;5043522;28;20280;-78
2021/09/09 03:28:45;;;;;;;15.40;11.27;;;16.30;99.90;;;;;;5024634;28;20193;-78
2021/09/09 03:31:11;;;;;;;17.80;11.00;;;15.90;99.90;;;;;;5039066;28;20219;-78
2021/09/09 03:33:36;;;;;;;21.50;11.73;;;15.70;99.90;;;;;;5021746;28;20699;-78
2021/09/09 03:36:02;;;;;;;14.53;10.57;;;15.60;99.90;;;;;;5041512;28;20280;-77
2021/09/09 03:38:27;;;;;;;14.73;10.37;;;15.70;99.90;;;;;;5040336;28;20185;-78
2021/09/09 03:40:53;;;;;;;15.50;11.27;;;15.90;99.90;;;;;;5039559;28;20177;-78
2021/09/09 03:43:18;;;;;;;14.87;11.20;;;15.70;99.90;;;;;;5041903;28;20204;-79
2021/09/09 03:45:44;;;;;;;18.40;10.50;;;15.70;99.90;;;;;;5025448;28;20197;-78
2021/09/09 03:48:09;;;;;;;17.53;11.23;;;15.80;99.90;;;;;;5041889;28;20204;-79
2021/09/09 03:50:35;;;;;;;18.57;12.20;;;15.90;99.90;;;;;;5026254;28;20173;-79
2021/09/09 03:53:00;;;;;;;18.73;12.37;;;16.00;99.90;;;;;;5042839;28;20573;-79
2021/09/09 03:55:26;;;;;;;19.73;12.30;;;16.00;99.90;;;;;;5042633;28;20191;-78
2021/09/09 03:57:51;;;;;;;16.87;10.77;;;16.00;99.90;;;;;;5026377;28;20165;-79
2021/09/09 04:00:17;;;;;;;16.97;11.60;;;15.90;99.90;;;;;;5044007;28;20736;-79
2021/09/09 04:02:43;;;;;;;17.93;11.50;;;15.80;99.90;;;;;;5043322;28;20203;-79
2021/09/09 04:05:09;;;;;;;16.30;10.73;;;15.60;99.90;;;;;;5043055;28;20574;-78
2021/09/09 04:07:34;;;;;;;18.57;11.30;;;15.50;99.90;;;;;;5041527;28;20177;-79
2021/09/09 04:10:00;;;;;;;18.60;12.50;;;15.40;99.90;;;;;;5039583;28;20499;-79
2021/09/09 04:12:26;;;;;;;20.27;11.00;;;15.30;99.90;;;;;;5038080;28;20192;-79
2021/09/09 04:14:51;;;;;;;16.93;10.67;;;15.40;99.90;;;;;;5034562;28;20195;-78
2021/09/09 04:17:21;;;;;;;19.70;12.20;;;15.50;99.90;;;;;;5040168;28;20180;-78
2021/09/09 04:19:47;;;;;;;16.20;11.40;;;15.50;99.90;;;;;;5042703;28;20651;-79
2021/09/09 04:22:12;;;;;;;22.57;14.33;;;15.40;99.90;;;;;;5042408;28;20420;-78
2021/09/09 04:24:38;;;;;;;16.03;11.03;;;15.20;99.90;;;;;;5041148;28;20223;-78
2021/09/09 04:27:04;;;;;;;20.87;10.80;;;15.20;99.90;;;;;;5041802;28;20185;-78
2021/09/09 04:29:31;;;;;;;17.13;10.67;;;15.20;99.90;;;;;;5042346;28;20552;-79
2021/09/09 04:31:56;;;;;;;19.30;12.17;;;15.30;99.90;;;;;;5038435;28;20416;-78
2021/09/09 04:34:25;;;;;;;15.23;10.93;;;15.20;99.90;;;;;;5033454;28;20419;-78
2021/09/09 04:36:50;;;;;;;16.70;11.43;;;14.90;99.90;;;;;;5034240;28;20191;-78
2021/09/09 04:39:16;;;;;;;21.20;13.03;;;14.90;99.90;;;;;;5034169;28;20409;-78
2021/09/09 04:41:41;;;;;;;17.77;12.13;;;14.70;99.90;;;;;;5035696;28;20689;-78
2021/09/09 04:44:07;;;;;;;17.90;12.47;;;14.60;99.90;;;;;;5035598;28;20211;-78
2021/09/09 04:46:33;;;;;;;16.60;11.63;;;14.60;99.90;;;;;;5035761;28;20189;-78
2021/09/09 04:48:59;;;;;;;16.85;12.20;;;14.50;99.90;;;;;;5035315;28;20202;-78
2021/09/09 04:51:24;;;;;;;20.67;12.40;;;14.50;99.90;;;;;;5034587;28;20183;-79
2021/09/09 04:53:50;;;;;;;17.40;11.53;;;14.50;99.90;;;;;;5035331;28;20443;-79
2021/09/09 04:56:16;;;;;;;20.20;12.07;;;14.50;99.90;;;;;;5033263;28;20182;-77
2021/09/09 04:58:42;;;;;;;17.63;11.77;;;14.60;99.90;;;;;;5032323;28;20206;-78
2021/09/09 05:01:07;;;;;;;17.60;12.03;;;14.60;99.90;;;;;;5032187;28;20172;-78
2021/09/09 05:03:33;;;;;;;18.07;11.67;;;14.70;99.90;;;;;;5031997;28;20390;-77
2021/09/09 05:05:59;;;;;;;17.97;11.83;;;14.70;99.90;;;;;;5032349;28;20464;-76
2021/09/09 05:08:25;;;;;;;16.30;10.53;;;15.00;99.90;;;;;;5031998;28;20179;-76
2021/09/09 05:10:50;;;;;;;14.23;10.30;;;15.20;99.90;;;;;;5032059;28;20406;-77
2021/09/09 05:13:16;;;;;;;18.43;12.00;;;15.10;99.90;;;;;;5031613;28;20168;-77
2021/09/09 05:15:41;;;;;;;16.10;10.87;;;15.10;99.90;;;;;;5031860;28;20241;-76
2021/09/09 05:18:07;;;;;;;21.27;11.33;;;15.10;99.90;;;;;;5030758;28;20248;-77
2021/09/09 05:20:33;;;;;;;16.93;9.53;;;15.30;99.90;;;;;;5031709;28;20591;-78
2021/09/09 05:22:58;;;;;;;14.33;10.23;;;15.40;99.90;;;;;;5030688;28;20299;-78
2021/09/09 05:25:24;;;;;;;13.00;10.00;;;15.30;99.90;;;;;;5034735;28;20193;-79
2021/09/09 05:27:49;;;;;;;17.13;11.20;;;15.40;99.90;;;;;;5034279;28;20268;-78
2021/09/09 05:30:15;;;;;;;18.83;11.23;;;15.50;99.90;;;;;;5035489;28;20189;-78
2021/09/09 05:32:41;;;;;;;15.27;11.70;;;15.50;99.90;;;;;;5033563;28;20307;-78
2021/09/09 05:35:08;;;;;;;13.30;10.13;;;15.50;99.90;;;;;;5032271;28;20296;-78
2021/09/09 05:37:33;;;;;;;15.43;10.40;;;15.60;99.90;;;;;;5031706;28;20177;-78
2021/09/09 05:39:59;;;;;;;19.73;12.37;;;15.60;99.90;;;;;;5031600;28;20929;-78
2021/09/09 05:42:25;;;;;;;17.00;10.90;;;15.40;99.90;;;;;;5033819;28;20199;-79
2021/09/09 05:44:51;;;;;;;18.70;10.77;;;15.50;99.90;;;;;;5033392;28;20227;-78
2021/09/09 05:47:17;;;;;;;18.00;11.03;;;15.20;99.90;;;;;;5067797;28;20171;-78
2021/09/09 05:49:43;;;;;;;16.60;11.77;;;15.30;99.90;;;;;;5034817;28;20469;-79
2021/09/09 05:52:09;;;;;;;17.40;10.90;;;15.40;99.90;;;;;;5035486;28;20412;-78
2021/09/09 05:54:35;;;;;;;23.17;11.93;;;15.50;99.90;;;;;;5034624;28;20652;-78
2021/09/09 05:57:02;;;;;;;16.00;10.43;;;15.60;99.90;;;;;;5033526;28;20411;-79
2021/09/09 05:59:27;;;;;;;15.57;10.77;;;15.80;99.90;;;;;;5032620;28;20224;-78
2021/09/09 06:01:53;;;;;;;13.97;10.23;;;16.00;99.90;;;;;;5034147;28;20466;-79
2021/09/09 06:04:20;;;;;;;21.13;10.63;;;16.40;99.90;;;;;;5034614;28;20457;-78
2021/09/09 06:06:45;;;;;;;17.57;10.70;;;16.70;99.90;;;;;;5036290;28;20180;-78
2021/09/09 06:09:12;;;;;;;20.63;11.73;;;16.90;99.90;;;;;;5035404;28;20895;-78
2021/09/09 06:11:37;;;;;;;17.33;11.93;;;17.30;99.90;;;;;;5035985;28;20182;-78
2021/09/09 06:14:04;;;;;;;13.07;10.07;;;17.50;99.90;;;;;;5036054;28;20431;-79
2021/09/09 06:16:30;;;;;;;14.60;10.60;;;17.60;99.90;;;;;;5036043;28;20197;-78
2021/09/09 06:18:56;;;;;;;16.47;11.53;;;17.70;99.90;;;;;;5034384;28;20430;-78
2021/09/09 06:21:21;;;;;;;16.20;11.10;;;17.90;99.90;;;;;;5035659;28;20836;-78
2021/09/09 06:23:47;;;;;;;14.53;11.27;;;18.10;99.90;;;;;;5036111;28;20458;-78
2021/09/09 06:26:12;;;;;;;14.13;10.67;;;18.30;99.90;;;;;;5035725;28;20223;-78
2021/09/09 06:28:38;;;;;;;17.93;10.70;;;18.30;99.90;;;;;;5035086;28;20171;-78
2021/09/09 06:31:03;;;;;;;13.83;10.77;;;18.50;99.90;;;;;;5037331;28;20177;-80
2021/09/09 06:33:29;;;;;;;15.30;10.33;;;18.70;99.90;;;;;;5039155;28;20184;-81
2021/09/09 06:35:55;;;;;;;16.53;9.87;;;18.90;99.90;;;;;;5039499;28;20203;-82
2021/09/09 06:38:20;;;;;;;17.53;10.17;;;19.10;99.90;;;;;;5038329;28;20659;-81
2021/09/09 06:40:46;;;;;;;13.17;9.90;;;19.30;99.90;;;;;;5040651;28;20241;-80
2021/09/09 06:43:11;;;;;;;13.37;10.57;;;19.40;99.90;;;;;;5038527;28;20700;-79
2021/09/09 06:45:37;;;;;;;16.30;9.23;;;19.50;99.90;;;;;;5037144;28;20223;-79
2021/09/09 06:48:03;;;;;;;10.83;7.97;;;19.40;99.90;;;;;;5037683;28;20652;-80
2021/09/09 06:50:31;;;;;;;15.00;9.10;;;19.40;99.90;;;;;;5036322;28;20680;-79
2021/09/09 06:52:57;;;;;;;12.47;8.30;;;19.40;99.90;;;;;;5037467;28;20421;-79
2021/09/09 06:55:22;;;;;;;11.90;8.27;;;19.60;99.90;;;;;;5035650;28;20454;-79
2021/09/09 06:57:48;;;;;;;11.40;8.30;;;19.60;99.90;;;;;;5036785;28;20186;-78
2021/09/09 07:00:14;;;;;;;9.83;7.47;;;19.70;99.90;;;;;;5032753;28;20186;-77
2021/09/09 07:02:39;;;;;;;9.53;7.40;;;19.80;99.90;;;;;;5038430;28;20227;-78
2021/09/09 07:05:05;;;;;;;10.17;7.73;;;19.80;99.90;;;;;;5055505;28;20467;-80
2021/09/09 07:07:31;;;;;;;11.93;8.10;;;19.90;99.90;;;;;;5034971;28;20215;-79
2021/09/09 07:09:56;;;;;;;12.83;7.93;;;20.00;99.90;;;;;;5036587;28;20410;-79
2021/09/09 07:12:22;;;;;;;12.77;8.70;;;20.00;99.90;;;;;;5068477;28;20191;-79
2021/09/09 07:14:48;;;;;;;12.80;8.63;;;20.10;99.90;;;;;;5034104;28;20232;-77
2021/09/09 07:17:13;;;;;;;21.63;8.60;;;20.20;99.90;;;;;;5034810;28;20236;-79
2021/09/09 07:19:39;;;;;;;10.30;8.10;;;20.30;99.90;;;;;;5035949;28;20183;-79
2021/09/09 07:22:04;;;;;;;11.00;7.87;;;20.20;99.90;;;;;;5051881;28;20256;-81
2021/09/09 07:24:30;;;;;;;12.43;8.20;;;20.20;99.90;;;;;;5038669;28;20220;-81
2021/09/09 07:26:55;;;;;;;8.53;7.60;;;20.20;99.90;;;;;;5036087;28;20166;-81
2021/09/09 07:29:21;;;;;;;9.77;7.23;;;20.20;99.90;;;;;;5018863;28;20186;-81
2021/09/09 07:31:47;;;;;;;11.63;6.77;;;20.20;99.90;;;;;;5070735;28;20425;-80
2021/09/09 07:34:13;;;;;;;8.93;6.93;;;20.00;99.90;;;;;;5071020;28;20424;-80
2021/09/09 07:36:39;;;;;;;10.20;6.77;;;20.10;99.90;;;;;;5039329;28;20916;-80
2021/09/09 07:39:05;;;;;;;11.53;7.47;;;20.10;99.90;;;;;;5038914;28;20176;-78
2021/09/09 07:41:32;;;;;;;7.40;6.00;;;20.10;99.90;;;;;;5037600;28;20437;-81
2021/09/09 07:43:57;;;;;;;6.87;6.00;;;20.10;99.90;;;;;;5040912;28;20338;-80
2021/09/09 07:46:23;;;;;;;8.87;6.37;;;20.10;99.90;;;;;;5040749;28;20638;-80
2021/09/09 07:48:50;;;;;;;10.33;6.70;;;20.10;99.90;;;;;;5040298;28;20172;-81
2021/09/09 07:51:18;;;;;;;9.33;6.63;;;20.20;99.90;;;;;;5041517;28;20195;-80
2021/09/09 07:53:44;;;;;;;6.70;5.93;;;20.20;99.90;;;;;;5024307;28;21014;-80
2021/09/09 07:56:11;;;;;;;12.57;7.80;;;20.20;99.90;;;;;;5040935;28;20538;-80
2021/09/09 07:58:37;;;;;;;9.23;6.10;;;20.30;99.90;;;;;;5037870;28;20176;-80
2021/09/09 08:01:02;;;;;;;5.80;5.07;;;20.30;99.90;;;;;;5068743;28;20441;-80
2021/09/09 08:03:28;;;;;;;10.40;6.67;;;20.30;99.90;;;;;;5070277;28;20256;-81
2021/09/09 08:05:54;;;;;;;8.03;6.23;;;20.30;99.90;;;;;;5035588;28;20204;-79
2021/09/09 08:08:20;;;;;;;9.70;6.20;;;20.30;99.90;;;;;;5037825;28;20434;-81
2021/09/09 08:10:45;;;;;;;7.63;6.40;;;20.30;99.90;;;;;;5053237;28;20174;-80
2021/09/09 08:13:11;;;;;;;8.50;6.60;;;20.30;99.90;;;;;;5068412;28;20195;-81
2021/09/09 08:15:37;;;;;;;7.60;5.43;;;20.20;99.90;;;;;;5034685;28;20209;-80
2021/09/09 08:18:04;;;;;;;8.17;5.70;;;20.20;99.90;;;;;;5036322;28;20667;-82
2021/09/09 08:20:29;;;;;;;10.03;5.93;;;20.20;99.90;;;;;;5034889;28;20501;-81
2021/09/09 08:22:55;;;;;;;10.60;5.70;;;20.20;99.90;;;;;;5035890;28;20463;-81
2021/09/09 08:25:22;;;;;;;10.27;6.20;;;20.10;99.90;;;;;;5035800;28;20212;-80
2021/09/09 08:27:48;;;;;;;7.37;5.97;;;20.10;99.90;;;;;;5035978;28;20181;-81
2021/09/09 08:30:13;;;;;;;11.03;5.53;;;20.20;99.90;;;;;;5025361;28;20447;-81
2021/09/09 08:32:39;;;;;;;7.77;5.50;;;20.20;99.90;;;;;;5036172;28;20823;-81
2021/09/09 08:35:05;;;;;;;7.40;5.43;;;20.20;99.90;;;;;;5020221;28;20578;-81
2021/09/09 08:37:31;;;;;;;7.80;5.53;;;20.20;99.90;;;;;;5035908;28;20941;-80
2021/09/09 08:39:57;;;;;;;8.83;5.47;;;20.20;99.90;;;;;;5036032;28;20432;-81
2021/09/09 08:42:22;;;;;;;8.23;6.40;;;20.30;99.90;;;;;;5067748;28;20196;-80
2021/09/09 08:44:48;;;;;;;11.30;5.40;;;20.30;99.90;;;;;;5036521;28;20211;-81
2021/09/09 08:47:20;;;;;;;10.77;6.67;;;20.30;99.90;;;;;;5018326;28;20189;-81
2021/09/09 08:49:46;;;;;;;6.70;4.90;;;20.40;99.90;;;;;;5035693;28;20447;-80
2021/09/09 08:52:12;;;;;;;8.47;5.40;;;20.50;99.90;;;;;;5035261;28;20419;-80
2021/09/09 08:54:38;;;;;;;5.33;4.60;;;20.50;99.90;;;;;;5012911;28;20213;-81
2021/09/09 08:57:04;;;;;;;10.10;5.77;;;20.50;99.90;;;;;;5063543;28;20479;-80
2021/09/09 08:59:34;;;;;;;9.77;5.73;;;20.50;99.90;;;;;;5035909;28;20428;-81
2021/09/09 09:02:02;;;;;;;8.57;6.33;;;20.60;99.90;;;;;;5019232;28;20200;-81
2021/09/09 09:04:28;;;;;;;7.70;5.20;;;20.70;99.90;;;;;;5035073;28;20568;-81
2021/09/09 09:06:54;;;;;;;9.10;5.70;;;20.80;99.90;;;;;;5019368;28;20420;-81
2021/09/09 09:09:23;;;;;;;9.20;5.83;;;20.80;99.90;;;;;;5048660;28;20283;-81
2021/09/09 09:11:50;;;;;;;11.83;7.27;;;20.80;99.90;;;;;;5037034;28;20189;-83
2021/09/09 09:14:21;;;;;;;10.17;5.90;;;20.90;99.90;;;;;;5036109;28;20486;-82
2021/09/09 09:16:50;;;;;;;8.10;5.77;;;21.00;99.90;;;;;;5037062;28;20431;-81
2021/09/09 09:19:21;;;;;;;5.50;4.87;;;21.00;99.90;;;;;;5038123;28;20416;-81
2021/09/09 09:21:56;;;;;;;6.10;5.00;;;21.10;99.90;;;;;;5036571;28;20443;-80
2021/09/09 09:24:23;;;;;;;8.20;5.30;;;21.20;99.90;;;;;;5022413;28;20525;-81
2021/09/09 09:27:08;;;;;;;6.80;5.63;;;21.20;99.90;;;;;;5066394;28;20412;-82
2021/09/09 09:29:33;;;;;;;9.40;6.90;;;21.20;99.90;;;;;;5031576;28;20950;-81
2021/09/09 09:32:10;;;;;;;6.70;6.00;;;21.20;99.90;;;;;;5018653;28;20428;-82
2021/09/09 09:34:36;;;;;;;7.23;5.37;;;21.20;99.90;;;;;;5036046;28;20691;-81
2021/09/09 09:37:02;;;;;;;6.40;5.80;;;21.20;99.90;;;;;;5038662;28;20424;-81
2021/09/09 09:39:28;;;;;;;8.67;6.13;;;21.20;99.90;;;;;;5039870;28;20412;-81
2021/09/09 09:41:53;;;;;;;7.70;5.70;;;21.30;99.90;;;;;;5038750;28;20217;-81
2021/09/09 09:44:37;;;;;;;10.23;5.40;;;21.40;99.90;;;;;;5040211;28;20224;-81
2021/09/09 09:47:13;;;;;;;7.37;5.73;;;21.40;99.90;;;;;;5039052;28;20173;-82
2021/09/09 09:49:43;;;;;;;7.67;6.07;;;21.50;99.90;;;;;;5041152;28;20744;-81
2021/09/09 09:52:18;;;;;;;6.43;5.20;;;21.50;99.90;;;;;;5039824;28;20416;-80
2021/09/09 09:54:51;;;;;;;8.20;6.40;;;21.60;99.90;;;;;;5039594;28;20459;-80
2021/09/09 09:57:19;;;;;;;7.67;5.53;;;21.60;99.90;;;;;;5038367;28;20450;-80
2021/09/09 09:59:45;;;;;;;6.53;5.17;;;21.70;99.90;;;;;;5038395;28;20428;-79
2021/09/09 10:02:11;;;;;;;22.80;12.70;;;21.70;99.90;;;;;;5040058;28;20919;-79
2021/09/09 10:04:43;;;;;;;8.60;6.10;;;21.70;99.90;;;;;;5038890;28;20862;-80
2021/09/09 10:07:10;;;;;;;6.93;5.73;;;21.70;99.90;;;;;;5021299;28;20882;-79
2021/09/09 10:09:38;;;;;;;7.37;6.23;;;21.70;99.90;;;;;;5038040;28;20740;-80
2021/09/09 10:12:05;;;;;;;7.97;5.30;;;21.70;99.90;;;;;;5020494;28;20497;-80
2021/09/09 10:14:31;;;;;;;7.50;5.50;;;21.70;99.90;;;;;;5038879;28;20447;-80
2021/09/09 10:16:58;;;;;;;9.33;5.47;;;21.80;99.90;;;;;;5037421;28;20509;-79
2021/09/09 10:19:27;;;;;;;7.97;6.47;;;21.80;99.90;;;;;;5020429;28;20637;-79
2021/09/09 10:22:04;;;;;;;7.27;5.97;;;21.90;99.90;;;;;;5036156;28;20434;-79
2021/09/09 10:24:32;;;;;;;6.53;5.33;;;21.90;99.90;;;;;;5037691;28;20471;-79
2021/09/09 10:27:23;;;;;;;10.67;5.93;;;21.90;99.90;;;;;;5068755;28;20420;-79
2021/09/09 10:30:03;;;;;;;6.33;5.30;;;21.90;99.90;;;;;;5037997;28;20427;-79
2021/09/09 10:32:29;;;;;;;9.70;6.10;;;22.00;99.90;;;;;;5038305;28;20793;-79
2021/09/09 10:35:16;;;;;;;8.00;5.60;;;22.00;99.90;;;;;;5070671;28;20443;-80
2021/09/09 10:37:51;;;;;;;6.43;5.00;;;22.10;99.90;;;;;;5038742;28;20173;-80
2021/09/09 10:40:32;;;;;;;6.20;5.60;;;22.10;99.90;;;;;;5039221;28;20408;-79
2021/09/09 10:43:26;;;;;;;7.40;5.50;;;22.20;99.90;;;;;;5069611;28;20490;-80
2021/09/09 10:46:03;;;;;;;8.20;6.20;;;22.20;99.90;;;;;;5039216;28;20451;-80
2021/09/09 10:48:30;;;;;;;7.73;5.30;;;22.30;99.90;;;;;;5038817;28;20471;-79
2021/09/09 10:51:17;;;;;;;9.43;6.50;;;22.30;99.90;;;;;;5038001;28;20419;-79
2021/09/09 10:53:56;;;;;;;7.23;5.37;;;22.30;99.90;;;;;;5037842;28;20411;-80
2021/09/09 10:56:26;;;;;;;5.97;5.00;;;22.40;99.90;;;;;;5036410;28;20439;-78
2021/09/09 10:59:19;;;;;;;8.97;6.17;;;22.40;99.90;;;;;;5069378;28;20424;-80
2021/09/09 11:01:50;;;;;;;10.67;8.20;;;22.40;99.90;;;;;;5038614;28;20416;-80
2021/09/09 11:04:25;;;;;;;8.83;6.80;;;22.30;99.90;;;;;;5037131;28;20451;-79
2021/09/09 11:06:51;;;;;;;13.10;7.27;;;22.30;99.90;;;;;;5039766;28;20427;-80
2021/09/09 11:09:17;;;;;;;9.27;7.10;;;22.30;99.90;;;;;;5021213;28;20420;-79
2021/09/09 11:11:46;;;;;;;20.00;8.40;;;22.50;99.90;;;;;;5033034;28;20810;-79
2021/09/09 11:14:13;;;;;;;8.23;6.10;;;22.40;99.90;;;;;;5017809;28;20189;-80
2021/09/09 11:16:39;;;;;;;7.10;5.77;;;22.40;99.90;;;;;;5031384;28;20440;-80
2021/09/09 11:19:07;;;;;;;7.53;5.77;;;22.50;99.90;;;;;;5037707;28;20435;-79
2021/09/09 11:21:37;;;;;;;10.40;9.00;;;22.60;99.90;;;;;;5036659;28;20463;-80
2021/09/09 11:24:05;;;;;;;8.27;5.50;;;22.60;99.90;;;;;;5034311;28;20452;-80
2021/09/09 11:26:32;;;;;;;8.80;5.70;;;22.70;99.90;;;;;;5035940;28;20422;-81
2021/09/09 11:28:59;;;;;;;11.73;6.13;;;22.70;99.90;;;;;;5036127;28;20538;-79
2021/09/09 11:31:27;;;;;;;7.27;5.60;;;22.80;99.90;;;;;;5040504;28;20404;-80
2021/09/09 11:33:58;;;;;;;7.03;5.47;;;22.90;99.90;;;;;;5034641;28;20421;-80
2021/09/09 11:36:26;;;;;;;8.40;5.80;;;22.90;99.90;;;;;;5038125;28;20459;-80
2021/09/09 11:38:53;;;;;;;8.87;5.63;;;23.00;99.90;;;;;;5037076;28;20408;-80
2021/09/09 11:41:22;;;;;;;6.80;5.33;;;23.00;99.90;;;;;;5037358;28;20458;-80
2021/09/09 11:43:56;;;;;;;6.60;5.80;;;23.10;99.90;;;;;;5051864;28;20546;-81
2021/09/09 11:46:30;;;;;;;6.73;5.13;;;23.10;99.90;;;;;;5052294;28;20431;-81
2021/09/09 11:49:04;;;;;;;7.20;6.10;;;23.10;99.90;;;;;;5038313;28;20465;-81
2021/09/09 11:51:38;;;;;;;6.87;5.30;;;23.20;99.90;;;;;;5037455;28;20452;-81
2021/09/09 11:54:10;;;;;;;6.43;5.50;;;23.20;99.90;;;;;;5036548;28;20427;-80
2021/09/09 11:56:37;;;;;;;6.70;5.77;;;23.20;99.90;;;;;;5035928;28;20445;-79
2021/09/09 11:59:07;;;;;;;6.47;5.73;;;23.20;99.90;;;;;;5037370;28;20423;-81
2021/09/09 12:01:37;;;;;;;6.60;5.20;;;23.20;99.90;;;;;;5030179;28;20834;-81
2021/09/09 12:04:02;;;;;;;6.73;5.67;;;23.30;99.90;;;;;;5037332;28;20459;-81
2021/09/09 12:06:32;;;;;;;6.37;5.07;;;23.30;99.90;;;;;;5034858;28;20440;-80
2021/09/09 12:08:58;;;;;;;7.27;5.47;;;23.40;99.90;;;;;;5036064;28;20482;-80
2021/09/09 12:11:24;;;;;;;8.00;6.10;;;23.40;99.90;;;;;;5035235;28;20416;-79
2021/09/09 12:13:51;;;;;;;8.33;5.87;;;23.40;99.90;;;;;;5035049;28;20201;-80
2021/09/09 12:16:22;;;;;;;21.87;5.77;;;23.50;99.90;;;;;;5035136;28;20531;-80
2021/09/09 12:19:12;;;;;;;6.30;5.50;;;23.50;99.90;;;;;;5035317;28;20427;-80
2021/09/09 12:21:52;;;;;;;7.53;5.23;;;23.60;99.90;;;;;;5035688;28;20423;-81
2021/09/09 12:24:20;;;;;;;5.50;4.97;;;23.50;99.90;;;;;;5036359;28;20455;-81
2021/09/09 12:27:00;;;;;;;6.10;5.03;;;23.30;99.90;;;;;;5023214;28;20428;-81
2021/09/09 12:29:39;;;;;;;7.10;5.37;;;23.50;99.90;;;;;;5038807;28;20412;-80
2021/09/09 12:32:27;;;;;;;11.80;5.77;;;23.60;99.90;;;;;;5038515;28;20424;-81
2021/09/09 12:35:19;;;;;;;5.83;4.87;;;23.50;99.90;;;;;;5019555;28;20443;-81
2021/09/09 12:37:57;;;;;;;6.70;5.93;;;23.60;99.90;;;;;;5035810;28;20423;-82